sensor_id;sensor_type;location;lat;lon;timestamp;pressure;altitude;pressure_sealevel;temperature;humidity
47636;BME280;33364;50.766;15.338;2022-10-31T00:01:35;95400.94;;;10.76;88.19
47636;BME280;33364;50.766;15.338;2022-10-31T00:04:02;95398.19;;;10.66;88.16
47636;BME280;33364;50.766;15.338;2022-10-31T00:06:28;95400.91;;;10.65;88.28
47636;BME280;33364;50.766;15.338;2022-10-31T00:08:57;95411.34;;;10.63;89.51
47636;BME280;33364;50.766;15.338;2022-10-31T00:11:23;95400.53;;;10.69;88.66
47636;BME280;33364;50.766;15.338;2022-10-31T00:13:49;95407.88;;;10.75;88.27
47636;BME280;33364;50.766;15.338;2022-10-31T00:16:20;95407.41;;;10.70;87.72
47636;BME280;33364;50.766;15.338;2022-10-31T00:18:50;95401.41;;;10.70;88.26
47636;BME280;33364;50.766;15.338;2022-10-31T00:21:16;95400.31;;;10.72;88.20
47636;BME280;33364;50.766;15.338;2022-10-31T00:23:42;95407.28;;;10.72;88.04
47636;BME280;33364;50.766;15.338;2022-10-31T00:26:07;95405.63;;;10.71;88.89
47636;BME280;33364;50.766;15.338;2022-10-31T00:28:33;95399.22;;;10.63;87.37
47636;BME280;33364;50.766;15.338;2022-10-31T00:31:09;95400.34;;;10.48;89.27
47636;BME280;33364;50.766;15.338;2022-10-31T00:33:37;95399.44;;;10.49;89.15
47636;BME280;33364;50.766;15.338;2022-10-31T00:36:04;95398.03;;;10.56;89.53
47636;BME280;33364;50.766;15.338;2022-10-31T00:38:30;95408.28;;;10.58;88.63
47636;BME280;33364;50.766;15.338;2022-10-31T00:40:56;95402.03;;;10.49;88.43
47636;BME280;33364;50.766;15.338;2022-10-31T00:43:22;95409.38;;;10.43;89.60
47636;BME280;33364;50.766;15.338;2022-10-31T00:45:48;95402.94;;;10.48;89.33
47636;BME280;33364;50.766;15.338;2022-10-31T00:48:13;95402.59;;;10.53;88.89
47636;BME280;33364;50.766;15.338;2022-10-31T00:50:40;95402.16;;;10.59;89.06
47636;BME280;33364;50.766;15.338;2022-10-31T00:53:05;95404.88;;;10.57;88.26
47636;BME280;33364;50.766;15.338;2022-10-31T00:55:31;95405.94;;;10.55;88.19
47636;BME280;33364;50.766;15.338;2022-10-31T00:57:57;95401.28;;;10.47;88.82
47636;BME280;33364;50.766;15.338;2022-10-31T01:00:23;95400.84;;;10.53;89.41
47636;BME280;33364;50.766;15.338;2022-10-31T01:02:48;95407.41;;;10.46;88.88
47636;BME280;33364;50.766;15.338;2022-10-31T01:05:14;95405.78;;;10.45;89.40
47636;BME280;33364;50.766;15.338;2022-10-31T01:07:40;95405.66;;;10.47;90.33
47636;BME280;33364;50.766;15.338;2022-10-31T01:10:08;95402.13;;;10.48;88.97
47636;BME280;33364;50.766;15.338;2022-10-31T01:12:38;95408.84;;;10.50;89.07
47636;BME280;33364;50.766;15.338;2022-10-31T01:15:04;95407.69;;;10.54;88.94
47636;BME280;33364;50.766;15.338;2022-10-31T01:17:30;95408.25;;;10.47;89.13
47636;BME280;33364;50.766;15.338;2022-10-31T01:19:56;95397.19;;;10.45;89.17
47636;BME280;33364;50.766;15.338;2022-10-31T01:22:21;95393.53;;;10.47;89.18
47636;BME280;33364;50.766;15.338;2022-10-31T01:24:47;95388.97;;;10.51;89.36
47636;BME280;33364;50.766;15.338;2022-10-31T01:27:13;95394.59;;;10.45;88.39
47636;BME280;33364;50.766;15.338;2022-10-31T01:29:38;95391.41;;;10.41;90.20
47636;BME280;33364;50.766;15.338;2022-10-31T01:32:04;95394.00;;;10.41;89.64
47636;BME280;33364;50.766;15.338;2022-10-31T01:34:30;95387.88;;;10.42;89.84
47636;BME280;33364;50.766;15.338;2022-10-31T01:36:55;95387.66;;;10.45;90.13
47636;BME280;33364;50.766;15.338;2022-10-31T01:39:22;95387.31;;;10.50;89.52
47636;BME280;33364;50.766;15.338;2022-10-31T01:41:49;95379.16;;;10.43;90.22
47636;BME280;33364;50.766;15.338;2022-10-31T01:46:45;95381.53;;;10.46;89.98
47636;BME280;33364;50.766;15.338;2022-10-31T01:49:17;95386.72;;;10.46;89.29
47636;BME280;33364;50.766;15.338;2022-10-31T01:51:54;95376.38;;;10.46;90.31
47636;BME280;33364;50.766;15.338;2022-10-31T01:54:24;95376.84;;;10.51;89.93
47636;BME280;33364;50.766;15.338;2022-10-31T01:56:55;95371.69;;;10.51;89.70
47636;BME280;33364;50.766;15.338;2022-10-31T01:59:22;95376.03;;;10.51;89.21
47636;BME280;33364;50.766;15.338;2022-10-31T02:01:50;95375.13;;;10.39;89.53
47636;BME280;33364;50.766;15.338;2022-10-31T02:04:17;95383.84;;;10.38;89.65
47636;BME280;33364;50.766;15.338;2022-10-31T02:07:01;95380.56;;;10.36;90.77
47636;BME280;33364;50.766;15.338;2022-10-31T02:09:30;95379.50;;;10.38;90.03
47636;BME280;33364;50.766;15.338;2022-10-31T02:11:58;95379.28;;;10.42;90.82
47636;BME280;33364;50.766;15.338;2022-10-31T02:14:26;95374.94;;;10.42;90.20
47636;BME280;33364;50.766;15.338;2022-10-31T02:16:53;95379.97;;;10.44;90.18
47636;BME280;33364;50.766;15.338;2022-10-31T02:19:43;95379.81;;;10.34;90.38
47636;BME280;33364;50.766;15.338;2022-10-31T02:22:21;95374.06;;;10.30;89.80
47636;BME280;33364;50.766;15.338;2022-10-31T02:27:37;95370.88;;;10.27;91.26
47636;BME280;33364;50.766;15.338;2022-10-31T02:32:39;95372.31;;;10.31;90.53
47636;BME280;33364;50.766;15.338;2022-10-31T02:37:49;95377.00;;;10.13;90.78
47636;BME280;33364;50.766;15.338;2022-10-31T02:40:23;95375.22;;;10.13;91.32
47636;BME280;33364;50.766;15.338;2022-10-31T02:45:58;95380.03;;;10.07;91.52
47636;BME280;33364;50.766;15.338;2022-10-31T02:48:28;95383.00;;;10.13;90.33
47636;BME280;33364;50.766;15.338;2022-10-31T02:50:59;95383.00;;;10.13;90.19
47636;BME280;33364;50.766;15.338;2022-10-31T02:53:26;95383.50;;;10.19;91.10
47636;BME280;33364;50.766;15.338;2022-10-31T02:58:26;95384.56;;;10.16;90.77
47636;BME280;33364;50.766;15.338;2022-10-31T03:04:07;95385.03;;;9.97;90.63
47636;BME280;33364;50.766;15.338;2022-10-31T03:06:54;95382.31;;;9.99;90.78
47636;BME280;33364;50.766;15.338;2022-10-31T03:12:46;95392.28;;;9.92;91.16
47636;BME280;33364;50.766;15.338;2022-10-31T03:15:26;95387.50;;;9.99;91.39
47636;BME280;33364;50.766;15.338;2022-10-31T03:20:23;95389.34;;;10.09;92.28
47636;BME280;33364;50.766;15.338;2022-10-31T03:22:51;95387.41;;;10.00;89.69
47636;BME280;33364;50.766;15.338;2022-10-31T03:25:18;95384.19;;;9.97;90.97
47636;BME280;33364;50.766;15.338;2022-10-31T03:27:44;95385.66;;;9.88;90.95
47636;BME280;33364;50.766;15.338;2022-10-31T03:30:11;95380.91;;;9.95;91.51
47636;BME280;33364;50.766;15.338;2022-10-31T03:32:56;95388.44;;;9.98;91.18
47636;BME280;33364;50.766;15.338;2022-10-31T03:35:24;95391.75;;;10.00;90.59
47636;BME280;33364;50.766;15.338;2022-10-31T03:37:53;95387.91;;;10.05;91.47
47636;BME280;33364;50.766;15.338;2022-10-31T03:40:21;95393.16;;;10.04;91.12
47636;BME280;33364;50.766;15.338;2022-10-31T03:42:56;95385.00;;;10.10;92.13
47636;BME280;33364;50.766;15.338;2022-10-31T03:45:25;95394.72;;;10.06;90.12
47636;BME280;33364;50.766;15.338;2022-10-31T03:47:53;95388.72;;;10.06;90.25
47636;BME280;33364;50.766;15.338;2022-10-31T03:50:21;95381.50;;;9.98;90.76
47636;BME280;33364;50.766;15.338;2022-10-31T03:52:57;95389.66;;;10.05;91.27
47636;BME280;33364;50.766;15.338;2022-10-31T03:58:12;95385.03;;;9.97;91.47
47636;BME280;33364;50.766;15.338;2022-10-31T04:00:44;95380.22;;;10.04;90.68
47636;BME280;33364;50.766;15.338;2022-10-31T04:03:15;95382.88;;;9.91;90.04
47636;BME280;33364;50.766;15.338;2022-10-31T04:05:45;95388.66;;;9.95;91.49
47636;BME280;33364;50.766;15.338;2022-10-31T04:08:15;95384.69;;;10.02;91.46
47636;BME280;33364;50.766;15.338;2022-10-31T04:10:44;95392.75;;;10.10;91.46
47636;BME280;33364;50.766;15.338;2022-10-31T04:13:14;95382.63;;;10.07;90.83
47636;BME280;33364;50.766;15.338;2022-10-31T04:15:43;95386.47;;;10.01;90.37
47636;BME280;33364;50.766;15.338;2022-10-31T04:18:10;95385.66;;;10.01;90.56
47636;BME280;33364;50.766;15.338;2022-10-31T04:20:40;95399.06;;;10.06;91.32
47636;BME280;33364;50.766;15.338;2022-10-31T04:23:20;95383.84;;;10.14;90.84
47636;BME280;33364;50.766;15.338;2022-10-31T04:25:46;95391.69;;;10.12;91.05
47636;BME280;33364;50.766;15.338;2022-10-31T04:28:11;95392.03;;;10.08;89.69
47636;BME280;33364;50.766;15.338;2022-10-31T04:30:37;95388.84;;;10.04;90.59
47636;BME280;33364;50.766;15.338;2022-10-31T04:33:02;95390.16;;;10.10;90.55
47636;BME280;33364;50.766;15.338;2022-10-31T04:35:28;95395.34;;;10.10;90.63
47636;BME280;33364;50.766;15.338;2022-10-31T04:37:53;95391.69;;;10.12;90.62
47636;BME280;33364;50.766;15.338;2022-10-31T04:40:19;95392.25;;;10.05;89.75
47636;BME280;33364;50.766;15.338;2022-10-31T04:42:44;95387.16;;;10.03;90.46
47636;BME280;33364;50.766;15.338;2022-10-31T04:45:10;95390.50;;;10.05;90.17
47636;BME280;33364;50.766;15.338;2022-10-31T04:47:36;95391.06;;;10.09;90.06
47636;BME280;33364;50.766;15.338;2022-10-31T04:50:02;95388.00;;;10.04;89.59
47636;BME280;33364;50.766;15.338;2022-10-31T04:52:28;95393.41;;;10.01;90.55
47636;BME280;33364;50.766;15.338;2022-10-31T04:54:53;95385.41;;;10.04;90.55
47636;BME280;33364;50.766;15.338;2022-10-31T04:57:19;95391.94;;;10.09;90.00
47636;BME280;33364;50.766;15.338;2022-10-31T04:59:45;95393.59;;;9.98;90.20
47636;BME280;33364;50.766;15.338;2022-10-31T05:02:10;95397.34;;;9.94;89.86
47636;BME280;33364;50.766;15.338;2022-10-31T05:04:36;95401.38;;;9.98;91.50
47636;BME280;33364;50.766;15.338;2022-10-31T05:07:01;95396.00;;;10.01;90.74
47636;BME280;33364;50.766;15.338;2022-10-31T05:09:27;95401.38;;;9.98;90.06
47636;BME280;33364;50.766;15.338;2022-10-31T05:11:52;95397.75;;;10.00;90.15
47636;BME280;33364;50.766;15.338;2022-10-31T05:14:18;95399.91;;;9.94;90.12
47636;BME280;33364;50.766;15.338;2022-10-31T05:16:43;95402.75;;;9.91;90.52
47636;BME280;33364;50.766;15.338;2022-10-31T05:19:09;95400.97;;;9.91;89.73
47636;BME280;33364;50.766;15.338;2022-10-31T05:21:35;95406.59;;;9.85;90.52
47636;BME280;33364;50.766;15.338;2022-10-31T05:24:00;95397.06;;;9.85;90.31
47636;BME280;33364;50.766;15.338;2022-10-31T05:26:26;95400.34;;;9.88;90.80
47636;BME280;33364;50.766;15.338;2022-10-31T05:28:51;95398.59;;;9.88;90.10
47636;BME280;33364;50.766;15.338;2022-10-31T05:31:17;95402.63;;;9.92;90.26
47636;BME280;33364;50.766;15.338;2022-10-31T05:33:42;95400.28;;;9.89;89.72
47636;BME280;33364;50.766;15.338;2022-10-31T05:36:09;95404.59;;;9.89;89.99
47636;BME280;33364;50.766;15.338;2022-10-31T05:38:34;95402.00;;;9.89;89.98
47636;BME280;33364;50.766;15.338;2022-10-31T05:41:00;95401.63;;;9.82;89.50
47636;BME280;33364;50.766;15.338;2022-10-31T05:43:27;95404.31;;;9.80;90.29
47636;BME280;33364;50.766;15.338;2022-10-31T05:45:53;95406.78;;;9.82;90.54
47636;BME280;33364;50.766;15.338;2022-10-31T05:48:19;95407.63;;;9.82;89.93
47636;BME280;33364;50.766;15.338;2022-10-31T05:50:44;95413.53;;;9.84;90.09
47636;BME280;33364;50.766;15.338;2022-10-31T05:53:10;95410.94;;;9.84;90.09
47636;BME280;33364;50.766;15.338;2022-10-31T05:55:36;95413.28;;;9.88;90.48
47636;BME280;33364;50.766;15.338;2022-10-31T05:58:01;95411.81;;;9.96;91.07
47636;BME280;33364;50.766;15.338;2022-10-31T06:00:28;95412.84;;;9.94;90.10
47636;BME280;33364;50.766;15.338;2022-10-31T06:03:01;95414.53;;;9.95;90.56
47636;BME280;33364;50.766;15.338;2022-10-31T06:05:27;95411.50;;;10.01;90.73
47636;BME280;33364;50.766;15.338;2022-10-31T06:07:53;95413.47;;;9.97;90.24
47636;BME280;33364;50.766;15.338;2022-10-31T06:10:18;95412.75;;;9.95;90.19
47636;BME280;33364;50.766;15.338;2022-10-31T06:12:46;95416.00;;;9.86;90.51
47636;BME280;33364;50.766;15.338;2022-10-31T06:15:12;95415.06;;;9.87;90.53
47636;BME280;33364;50.766;15.338;2022-10-31T06:17:38;95412.84;;;9.94;91.00
47636;BME280;33364;50.766;15.338;2022-10-31T06:20:04;95412.03;;;9.93;90.14
47636;BME280;33364;50.766;15.338;2022-10-31T06:22:30;95419.78;;;9.93;90.25
47636;BME280;33364;50.766;15.338;2022-10-31T06:24:56;95417.31;;;9.92;91.53
47636;BME280;33364;50.766;15.338;2022-10-31T06:27:21;95421.34;;;9.96;90.63
47636;BME280;33364;50.766;15.338;2022-10-31T06:29:47;95425.56;;;9.97;90.57
47636;BME280;33364;50.766;15.338;2022-10-31T06:32:13;95422.06;;;9.98;91.33
47636;BME280;33364;50.766;15.338;2022-10-31T06:34:39;95425.56;;;9.97;90.82
47636;BME280;33364;50.766;15.338;2022-10-31T06:37:08;95421.53;;;9.93;90.05
47636;BME280;33364;50.766;15.338;2022-10-31T06:39:35;95421.78;;;9.90;91.02
47636;BME280;33364;50.766;15.338;2022-10-31T06:42:01;95420.22;;;9.87;91.34
47636;BME280;33364;50.766;15.338;2022-10-31T06:44:27;95427.78;;;9.90;91.45
47636;BME280;33364;50.766;15.338;2022-10-31T06:47:11;95430.03;;;9.95;91.49
47636;BME280;33364;50.766;15.338;2022-10-31T06:49:37;95427.66;;;9.92;91.67
47636;BME280;33364;50.766;15.338;2022-10-31T06:52:02;95432.81;;;9.92;91.33
47636;BME280;33364;50.766;15.338;2022-10-31T06:54:28;95428.59;;;9.91;92.22
47636;BME280;33364;50.766;15.338;2022-10-31T06:56:54;95432.81;;;9.92;92.04
47636;BME280;33364;50.766;15.338;2022-10-31T06:59:19;95434.97;;;9.98;92.24
47636;BME280;33364;50.766;15.338;2022-10-31T07:01:45;95441.09;;;9.97;92.41
47636;BME280;33364;50.766;15.338;2022-10-31T07:04:10;95433.50;;;10.06;92.80
47636;BME280;33364;50.766;15.338;2022-10-31T07:06:36;95434.31;;;10.20;93.42
47636;BME280;33364;50.766;15.338;2022-10-31T07:09:02;95444.94;;;10.28;92.64
47636;BME280;33364;50.766;15.338;2022-10-31T07:11:28;95442.97;;;10.31;93.10
47636;BME280;33364;50.766;15.338;2022-10-31T07:13:53;95443.97;;;10.42;93.32
47636;BME280;33364;50.766;15.338;2022-10-31T07:16:19;95443.00;;;10.55;92.93
47636;BME280;33364;50.766;15.338;2022-10-31T07:18:45;95443.53;;;10.72;93.10
47636;BME280;33364;50.766;15.338;2022-10-31T07:21:10;95440.47;;;10.78;92.31
47636;BME280;33364;50.766;15.338;2022-10-31T07:23:36;95438.84;;;10.88;91.77
47636;BME280;33364;50.766;15.338;2022-10-31T07:26:01;95445.50;;;11.03;91.75
47636;BME280;33364;50.766;15.338;2022-10-31T07:28:27;95442.97;;;11.26;91.25
47636;BME280;33364;50.766;15.338;2022-10-31T07:30:54;95442.75;;;11.51;90.06
47636;BME280;33364;50.766;15.338;2022-10-31T07:33:21;95441.59;;;11.78;89.64
47636;BME280;33364;50.766;15.338;2022-10-31T07:35:47;95440.41;;;12.04;87.92
47636;BME280;33364;50.766;15.338;2022-10-31T07:38:13;95441.59;;;12.11;87.24
47636;BME280;33364;50.766;15.338;2022-10-31T07:40:40;95440.16;;;12.18;87.02
47636;BME280;33364;50.766;15.338;2022-10-31T07:43:06;95441.81;;;12.19;86.96
47636;BME280;33364;50.766;15.338;2022-10-31T07:45:32;95439.69;;;12.13;87.13
47636;BME280;33364;50.766;15.338;2022-10-31T07:47:58;95445.72;;;12.14;88.15
47636;BME280;33364;50.766;15.338;2022-10-31T07:50:28;95452.19;;;12.19;87.94
47636;BME280;33364;50.766;15.338;2022-10-31T07:53:06;95442.88;;;12.17;88.85
47636;BME280;33364;50.766;15.338;2022-10-31T07:55:32;95442.53;;;12.22;88.89
47636;BME280;33364;50.766;15.338;2022-10-31T07:58:03;95443.81;;;12.27;89.23
47636;BME280;33364;50.766;15.338;2022-10-31T08:00:31;95457.47;;;12.40;89.87
47636;BME280;33364;50.766;15.338;2022-10-31T08:03:06;95449.84;;;12.60;88.72
47636;BME280;33364;50.766;15.338;2022-10-31T08:05:32;95445.44;;;12.72;88.77
47636;BME280;33364;50.766;15.338;2022-10-31T08:07:58;95447.56;;;12.99;87.65
47636;BME280;33364;50.766;15.338;2022-10-31T08:10:24;95454.06;;;13.25;87.50
47636;BME280;33364;50.766;15.338;2022-10-31T08:13:02;95449.09;;;13.64;86.01
47636;BME280;33364;50.766;15.338;2022-10-31T08:15:27;95447.19;;;13.96;84.97
47636;BME280;33364;50.766;15.338;2022-10-31T08:17:53;95451.78;;;14.23;83.58
47636;BME280;33364;50.766;15.338;2022-10-31T08:20:20;95449.94;;;14.55;82.30
47636;BME280;33364;50.766;15.338;2022-10-31T08:22:59;95449.56;;;14.98;81.47
47636;BME280;33364;50.766;15.338;2022-10-31T08:25:26;95444.31;;;15.37;80.46
47636;BME280;33364;50.766;15.338;2022-10-31T08:27:54;95441.78;;;15.64;78.60
47636;BME280;33364;50.766;15.338;2022-10-31T08:30:21;95447.59;;;15.95;76.77
47636;BME280;33364;50.766;15.338;2022-10-31T08:32:50;95443.41;;;16.12;77.21
47636;BME280;33364;50.766;15.338;2022-10-31T08:35:21;95444.75;;;16.44;75.97
47636;BME280;33364;50.766;15.338;2022-10-31T08:37:54;95444.72;;;16.71;74.71
47636;BME280;33364;50.766;15.338;2022-10-31T08:40:21;95447.94;;;16.83;73.86
47636;BME280;33364;50.766;15.338;2022-10-31T08:42:46;95439.25;;;17.00;74.01
47636;BME280;33364;50.766;15.338;2022-10-31T08:45:12;95439.88;;;17.12;73.30
47636;BME280;33364;50.766;15.338;2022-10-31T08:47:38;95442.16;;;17.33;71.72
47636;BME280;33364;50.766;15.338;2022-10-31T08:50:04;95436.19;;;17.49;70.74
47636;BME280;33364;50.766;15.338;2022-10-31T08:52:29;95442.72;;;17.71;70.94
47636;BME280;33364;50.766;15.338;2022-10-31T08:54:55;95445.31;;;17.71;68.98
47636;BME280;33364;50.766;15.338;2022-10-31T08:57:20;95440.88;;;17.63;69.13
47636;BME280;33364;50.766;15.338;2022-10-31T08:59:46;95442.47;;;17.82;68.92
47636;BME280;33364;50.766;15.338;2022-10-31T09:02:12;95436.19;;;18.01;68.09
47636;BME280;33364;50.766;15.338;2022-10-31T09:04:37;95438.16;;;17.99;68.27
47636;BME280;33364;50.766;15.338;2022-10-31T09:07:03;95444.78;;;17.85;67.26
47636;BME280;33364;50.766;15.338;2022-10-31T09:09:28;95440.19;;;17.61;68.04
47636;BME280;33364;50.766;15.338;2022-10-31T09:11:54;95439.75;;;17.22;69.97
47636;BME280;33364;50.766;15.338;2022-10-31T09:14:19;95436.72;;;16.91;70.61
47636;BME280;33364;50.766;15.338;2022-10-31T09:16:45;95435.81;;;16.64;72.57
47636;BME280;33364;50.766;15.338;2022-10-31T09:19:10;95440.28;;;16.54;71.82
47636;BME280;33364;50.766;15.338;2022-10-31T09:21:36;95436.91;;;16.44;73.96
47636;BME280;33364;50.766;15.338;2022-10-31T09:24:01;95438.69;;;16.61;72.68
47636;BME280;33364;50.766;15.338;2022-10-31T09:26:27;95438.00;;;16.87;72.84
47636;BME280;33364;50.766;15.338;2022-10-31T09:28:53;95435.03;;;17.25;71.14
47636;BME280;33364;50.766;15.338;2022-10-31T09:31:18;95431.41;;;17.62;69.89
47636;BME280;33364;50.766;15.338;2022-10-31T09:33:44;95429.47;;;17.98;68.82
47636;BME280;33364;50.766;15.338;2022-10-31T09:36:09;95431.72;;;18.27;67.37
47636;BME280;33364;50.766;15.338;2022-10-31T09:38:35;95440.66;;;18.59;64.56
47636;BME280;33364;50.766;15.338;2022-10-31T09:41:21;95441.22;;;18.87;64.62
47636;BME280;33364;50.766;15.338;2022-10-31T09:46:40;95435.31;;;19.58;62.37
47636;BME280;33364;50.766;15.338;2022-10-31T09:52:18;95429.81;;;20.01;58.81
47636;BME280;33364;50.766;15.338;2022-10-31T09:54:49;95435.13;;;20.32;58.06
47636;BME280;33364;50.766;15.338;2022-10-31T09:57:22;95440.50;;;20.47;57.93
47636;BME280;33364;50.766;15.338;2022-10-31T09:59:49;95436.88;;;20.79;57.93
47636;BME280;33364;50.766;15.338;2022-10-31T10:05:43;95427.31;;;21.09;57.11
47636;BME280;33364;50.766;15.338;2022-10-31T10:08:18;95430.59;;;21.34;56.74
47636;BME280;33364;50.766;15.338;2022-10-31T10:16:30;95440.81;;;21.66;56.57
47636;BME280;33364;50.766;15.338;2022-10-31T10:25:02;95428.50;;;22.11;55.43
47636;BME280;33364;50.766;15.338;2022-10-31T10:30:17;95423.69;;;22.30;55.52
47636;BME280;33364;50.766;15.338;2022-10-31T10:32:58;95431.47;;;22.38;54.41
47636;BME280;33364;50.766;15.338;2022-10-31T10:40:54;95414.84;;;22.37;54.43
47636;BME280;33364;50.766;15.338;2022-10-31T10:43:37;95420.59;;;22.26;54.76
47636;BME280;33364;50.766;15.338;2022-10-31T10:49:40;95414.75;;;22.31;56.39
47636;BME280;33364;50.766;15.338;2022-10-31T10:54:44;95412.53;;;22.49;55.33
47636;BME280;33364;50.766;15.338;2022-10-31T10:57:22;95411.81;;;22.55;55.77
47636;BME280;33364;50.766;15.338;2022-10-31T10:59:48;95411.78;;;22.70;54.71
47636;BME280;33364;50.766;15.338;2022-10-31T11:02:26;95408.38;;;22.76;54.13
47636;BME280;33364;50.766;15.338;2022-10-31T11:04:57;95411.44;;;22.94;54.05
47636;BME280;33364;50.766;15.338;2022-10-31T11:07:24;95409.94;;;23.07;53.56
47636;BME280;33364;50.766;15.338;2022-10-31T11:09:50;95411.53;;;23.29;54.50
47636;BME280;33364;50.766;15.338;2022-10-31T11:12:17;95403.03;;;23.34;53.71
47636;BME280;33364;50.766;15.338;2022-10-31T11:14:55;95406.88;;;23.31;53.08
47636;BME280;33364;50.766;15.338;2022-10-31T11:17:31;95397.91;;;23.25;52.59
47636;BME280;33364;50.766;15.338;2022-10-31T11:22:43;95396.06;;;23.54;52.78
47636;BME280;33364;50.766;15.338;2022-10-31T11:27:44;95389.81;;;23.55;51.78
47636;BME280;33364;50.766;15.338;2022-10-31T11:30:13;95395.25;;;23.53;52.26
47636;BME280;33364;50.766;15.338;2022-10-31T11:32:46;95391.00;;;23.52;50.62
47636;BME280;33364;50.766;15.338;2022-10-31T11:35:15;95393.06;;;23.57;51.68
47636;BME280;33364;50.766;15.338;2022-10-31T11:38:02;95387.19;;;23.34;51.32
47636;BME280;33364;50.766;15.338;2022-10-31T11:40:29;95384.00;;;23.17;53.09
47636;BME280;33364;50.766;15.338;2022-10-31T11:42:57;95381.09;;;23.05;52.23
47636;BME280;33364;50.766;15.338;2022-10-31T11:45:33;95381.75;;;22.92;52.37
47636;BME280;33364;50.766;15.338;2022-10-31T11:48:01;95381.53;;;22.72;52.58
47636;BME280;33364;50.766;15.338;2022-10-31T11:50:39;95374.47;;;22.58;54.44
47636;BME280;33364;50.766;15.338;2022-10-31T11:53:15;95385.03;;;22.58;53.86
47636;BME280;33364;50.766;15.338;2022-10-31T11:55:42;95374.81;;;22.70;54.09
47636;BME280;33364;50.766;15.338;2022-10-31T11:58:22;95364.38;;;22.62;54.56
47636;BME280;33364;50.766;15.338;2022-10-31T12:00:55;95361.50;;;22.57;54.56
47636;BME280;33364;50.766;15.338;2022-10-31T12:06:20;95361.69;;;22.55;54.39
47636;BME280;33364;50.766;15.338;2022-10-31T12:08:47;95356.84;;;22.59;54.06
47636;BME280;33364;50.766;15.338;2022-10-31T12:17:05;95348.91;;;22.37;54.91
47636;BME280;33364;50.766;15.338;2022-10-31T12:22:51;95344.63;;;22.36;54.88
47636;BME280;33364;50.766;15.338;2022-10-31T12:25:31;95342.19;;;22.35;55.30
47636;BME280;33364;50.766;15.338;2022-10-31T12:31:06;95337.75;;;22.35;55.86
47636;BME280;33364;50.766;15.338;2022-10-31T12:44:34;95337.38;;;22.09;57.00
47636;BME280;33364;50.766;15.338;2022-10-31T12:52:22;95340.88;;;22.24;54.75
47636;BME280;33364;50.766;15.338;2022-10-31T12:57:40;95328.22;;;22.19;55.28
47636;BME280;33364;50.766;15.338;2022-10-31T13:00:15;95316.88;;;22.04;56.31
47636;BME280;33364;50.766;15.338;2022-10-31T13:02:48;95320.34;;;21.90;57.82
47636;BME280;33364;50.766;15.338;2022-10-31T13:05:31;95327.34;;;21.53;58.24
47636;BME280;33364;50.766;15.338;2022-10-31T13:10:40;95316.47;;;21.18;59.64
47636;BME280;33364;50.766;15.338;2022-10-31T13:13:31;95313.66;;;21.05;59.39
47636;BME280;33364;50.766;15.338;2022-10-31T13:16:21;95315.19;;;21.00;59.33
47636;BME280;33364;50.766;15.338;2022-10-31T13:24:22;95314.53;;;20.60;61.77
47636;BME280;33364;50.766;15.338;2022-10-31T13:26:54;95311.28;;;20.27;63.21
47636;BME280;33364;50.766;15.338;2022-10-31T13:29:26;95315.00;;;20.09;63.62
47636;BME280;33364;50.766;15.338;2022-10-31T13:31:53;95317.53;;;19.95;64.57
47636;BME280;33364;50.766;15.338;2022-10-31T13:34:28;95310.38;;;19.80;64.70
47636;BME280;33364;50.766;15.338;2022-10-31T13:40:02;95307.38;;;19.36;67.19
47636;BME280;33364;50.766;15.338;2022-10-31T13:42:51;95317.25;;;19.26;67.20
47636;BME280;33364;50.766;15.338;2022-10-31T13:45:24;95311.84;;;19.19;67.44
47636;BME280;33364;50.766;15.338;2022-10-31T13:48:01;95317.59;;;19.06;68.69
47636;BME280;33364;50.766;15.338;2022-10-31T13:50:29;95317.59;;;19.06;68.59
47636;BME280;33364;50.766;15.338;2022-10-31T13:53:19;95311.53;;;19.06;68.97
47636;BME280;33364;50.766;15.338;2022-10-31T13:56:05;95310.41;;;19.00;69.18
47636;BME280;33364;50.766;15.338;2022-10-31T13:58:36;95312.69;;;18.87;70.32
47636;BME280;33364;50.766;15.338;2022-10-31T14:01:20;95310.78;;;18.73;70.23
47636;BME280;33364;50.766;15.338;2022-10-31T14:03:56;95316.78;;;18.57;71.15
47636;BME280;33364;50.766;15.338;2022-10-31T14:06:35;95313.66;;;18.45;71.72
47636;BME280;33364;50.766;15.338;2022-10-31T14:09:02;95314.63;;;18.20;73.12
47636;BME280;33364;50.766;15.338;2022-10-31T14:11:29;95322.16;;;18.23;73.50
47636;BME280;33364;50.766;15.338;2022-10-31T14:13:56;95308.38;;;18.13;73.25
47636;BME280;33364;50.766;15.338;2022-10-31T14:16:29;95312.94;;;18.10;73.42
47636;BME280;33364;50.766;15.338;2022-10-31T14:19:05;95319.47;;;17.98;74.35
47636;BME280;33364;50.766;15.338;2022-10-31T14:21:41;95315.06;;;18.07;73.67
47636;BME280;33364;50.766;15.338;2022-10-31T14:26:52;95317.66;;;17.91;74.42
47636;BME280;33364;50.766;15.338;2022-10-31T14:34:37;95311.72;;;17.80;75.39
47636;BME280;33364;50.766;15.338;2022-10-31T14:45:32;95306.09;;;17.67;74.95
47636;BME280;33364;50.766;15.338;2022-10-31T14:50:37;95306.47;;;17.46;75.99
47636;BME280;33364;50.766;15.338;2022-10-31T14:53:14;95300.06;;;17.41;76.10
47636;BME280;33364;50.766;15.338;2022-10-31T14:55:47;95297.09;;;17.35;76.41
47636;BME280;33364;50.766;15.338;2022-10-31T14:58:19;95292.34;;;17.31;76.62
47636;BME280;33364;50.766;15.338;2022-10-31T15:00:45;95290.47;;;17.15;76.98
47636;BME280;33364;50.766;15.338;2022-10-31T15:03:15;95297.44;;;17.06;76.83
47636;BME280;33364;50.766;15.338;2022-10-31T15:05:50;95289.47;;;17.08;76.95
47636;BME280;33364;50.766;15.338;2022-10-31T15:10:58;95287.59;;;17.00;76.92
47636;BME280;33364;50.766;15.338;2022-10-31T15:13:24;95294.09;;;16.96;77.61
47636;BME280;33364;50.766;15.338;2022-10-31T15:15:52;95291.94;;;16.92;76.86
47636;BME280;33364;50.766;15.338;2022-10-31T15:18:25;95283.09;;;16.85;77.00